Time;durP1;ratioP1;P1;durP2;ratioP2;P2;SDS_P1;SDS_P2;PMS_P1;PMS_P2;Temp;Humidity;BMP_temperature;BMP_pressure;BME280_temperature;BME280_humidity;BME280_pressure;Samples;Min_cycle;Max_cycle;Signal;HPM_P1;HPM_P2
2021/12/19 00:01:56;;;;;;;5.30;4.80;;;3.10;88.90;;;2.89;61.16;95556.72;5099781;28;20483;-61
2021/12/19 00:04:30;;;;;;;4.90;4.50;;;3.20;89.20;;;2.88;61.09;95555.03;5102569;28;20571;-60
2021/12/19 00:09:41;;;;;;;4.80;4.40;;;3.10;89.10;;;2.82;60.91;95548.38;5095488;28;20579;-60
2021/12/19 00:12:09;;;;;;;4.90;4.50;;;3.10;89.10;;;2.81;61.97;95551.91;5097888;28;20573;-60
2021/12/19 00:14:36;;;;;;;6.00;4.63;;;3.10;89.30;;;2.75;61.67;95547.00;5096008;28;20455;-61
2021/12/19 00:17:04;;;;;;;4.40;4.00;;;3.10;89.10;;;2.72;61.20;95547.16;5095204;28;20472;-61
2021/12/19 00:19:33;;;;;;;4.17;3.80;;;3.00;89.40;;;2.70;61.34;95549.00;5097443;28;20460;-59
2021/12/19 00:22:00;;;;;;;4.87;4.40;;;3.00;89.50;;;2.67;61.38;95543.94;5096851;28;20496;-59
2021/12/19 00:24:29;;;;;;;4.07;3.80;;;3.00;89.60;;;2.63;61.29;95538.06;5092065;28;20859;-64
2021/12/19 00:26:56;;;;;;;4.40;3.97;;;2.90;89.60;;;2.59;61.32;95538.31;5093952;28;20465;-60
2021/12/19 00:29:23;;;;;;;4.10;3.80;;;2.90;89.80;;;2.50;62.12;95535.22;5091999;28;20708;-58
2021/12/19 00:31:51;;;;;;;5.50;4.60;;;2.80;89.70;;;2.44;62.05;95535.50;5095070;28;20881;-58
2021/12/19 00:34:18;;;;;;;10.53;5.30;;;2.80;90.00;;;2.39;61.66;95526.28;5098777;28;20515;-57
2021/12/19 00:36:47;;;;;;;6.13;5.37;;;2.70;90.00;;;2.33;61.86;95535.19;5102486;28;20654;-61
2021/12/19 00:39:14;;;;;;;7.30;6.60;;;2.60;90.10;;;2.31;62.15;95532.66;5093826;28;21006;-59
2021/12/19 00:41:41;;;;;;;9.37;6.83;;;2.60;90.30;;;2.27;62.96;95535.47;5093994;28;20997;-58
2021/12/19 00:44:10;;;;;;;6.00;5.30;;;2.60;90.40;;;2.25;62.54;95547.69;5096273;28;20946;-60
2021/12/19 00:46:47;;;;;;;8.10;6.30;;;2.60;90.40;;;2.21;63.19;95546.16;5095531;28;20518;-58
2021/12/19 00:49:14;;;;;;;6.30;5.47;;;2.50;90.50;;;2.19;63.37;95535.03;5101522;28;20919;-57
2021/12/19 00:51:42;;;;;;;7.10;5.57;;;2.50;90.60;;;2.14;62.70;95536.06;5097553;28;20488;-61
2021/12/19 00:54:10;;;;;;;5.67;5.27;;;2.50;90.60;;;2.12;62.97;95532.72;5098252;28;20445;-59
2021/12/19 00:56:39;;;;;;;6.00;5.40;;;2.40;90.70;;;2.10;63.02;95529.31;5097335;27;20561;-59
2021/12/19 00:59:06;;;;;;;5.30;4.80;;;2.40;90.80;;;2.10;62.96;95537.13;5100481;28;20764;-59
2021/12/19 01:01:34;;;;;;;6.73;5.47;;;2.40;90.90;;;2.09;62.91;95527.66;5096069;28;20466;-59
2021/12/19 01:04:02;;;;;;;6.23;5.30;;;2.40;90.80;;;2.06;63.12;95516.56;5101222;28;20437;-58
2021/12/19 01:06:29;;;;;;;10.00;5.80;;;2.40;90.90;;;2.04;62.39;95510.63;5092808;28;20482;-59
2021/12/19 01:08:56;;;;;;;6.10;5.50;;;2.30;90.90;;;2.03;63.22;95507.19;5101520;28;20456;-57
2021/12/19 01:11:27;;;;;;;6.37;5.70;;;2.30;91.00;;;2.02;63.82;95515.06;5099312;27;20481;-60
2021/12/19 01:13:55;;;;;;;7.83;6.03;;;2.30;91.00;;;2.04;63.37;95508.03;5096861;28;20438;-60
2021/12/19 01:16:22;;;;;;;7.50;5.67;;;2.30;91.10;;;2.03;63.39;95507.19;5098103;28;20481;-58
2021/12/19 01:18:50;;;;;;;6.10;4.90;;;2.30;91.10;;;2.02;63.24;95504.69;5097643;28;20456;-58
2021/12/19 01:21:17;;;;;;;7.10;6.40;;;2.30;91.20;;;2.03;64.11;95503.75;5098572;28;21066;-61
2021/12/19 01:23:45;;;;;;;6.00;5.50;;;2.30;91.30;;;2.06;64.65;95499.28;5095623;28;20445;-61
2021/12/19 01:26:12;;;;;;;7.90;6.17;;;2.30;91.40;;;2.09;63.02;95491.34;5099772;28;22178;-58
2021/12/19 01:28:42;;;;;;;7.70;5.70;;;2.40;91.40;;;2.10;63.35;95482.63;5096429;28;20457;-58
2021/12/19 01:31:09;;;;;;;6.63;6.03;;;2.40;91.40;;;2.10;64.71;95471.41;5095367;28;20528;-61
2021/12/19 01:33:36;;;;;;;7.23;6.30;;;2.40;91.50;;;2.09;64.08;95478.38;5095216;28;20654;-60
2021/12/19 01:36:04;;;;;;;5.90;5.40;;;2.40;91.40;;;2.07;63.51;95482.78;5097683;28;20697;-60
2021/12/19 01:38:32;;;;;;;8.50;5.47;;;2.40;91.40;;;2.07;63.23;95474.97;5097320;28;20458;-57
2021/12/19 01:40:59;;;;;;;5.87;5.30;;;2.40;91.30;;;2.07;63.37;95474.97;5098547;28;20552;-58
2021/12/19 01:43:27;;;;;;;5.33;4.80;;;2.40;91.50;;;2.06;63.68;95470.72;5097670;28;20446;-60
2021/12/19 01:45:56;;;;;;;4.70;4.23;;;2.40;91.40;;;2.06;63.93;95465.53;5100627;28;20466;-58
2021/12/19 01:48:23;;;;;;;6.67;5.10;;;2.40;91.30;;;2.07;63.56;95467.19;5096579;28;20450;-58
2021/12/19 01:50:51;;;;;;;5.40;4.73;;;2.40;91.40;;;2.08;63.53;95463.69;5093208;28;21016;-58
2021/12/19 01:53:18;;;;;;;7.20;6.27;;;2.40;91.50;;;2.09;64.05;95460.19;5091979;28;20453;-61
2021/12/19 01:55:46;;;;;;;5.67;5.17;;;2.40;91.50;;;2.08;64.19;95455.09;5098830;28;20474;-59
2021/12/19 01:58:14;;;;;;;6.60;5.13;;;2.40;91.50;;;2.10;64.37;95466.22;5095423;28;20458;-58
2021/12/19 02:00:45;;;;;;;6.67;5.80;;;2.40;91.50;;;2.12;63.51;95454.00;5089841;28;20461;-61
2021/12/19 02:03:14;;;;;;;5.23;4.83;;;2.40;91.60;;;2.14;64.46;95445.25;5093061;28;20992;-60
2021/12/19 02:05:42;;;;;;;7.33;5.40;;;2.40;91.60;;;2.15;63.42;95449.53;5099093;28;20476;-61
2021/12/19 02:08:09;;;;;;;6.23;5.63;;;2.40;91.60;;;2.20;64.33;95445.84;5098093;28;20449;-59
2021/12/19 02:10:37;;;;;;;11.03;6.00;;;2.50;91.60;;;2.25;64.25;95449.09;5090804;28;20850;-57
2021/12/19 02:13:05;;;;;;;8.17;5.70;;;2.50;91.60;;;2.30;64.23;95444.50;5095436;28;20449;-58
2021/12/19 02:15:33;;;;;;;6.23;5.33;;;2.60;91.70;;;2.33;64.62;95445.16;5094050;28;20535;-57
2021/12/19 02:18:03;;;;;;;7.63;6.37;;;2.60;91.70;;;2.40;63.54;95450.06;5093652;28;21090;-58
2021/12/19 02:20:33;;;;;;;6.50;5.80;;;2.70;91.80;;;2.43;64.46;95442.13;5096273;28;20817;-61
2021/12/19 02:23:01;;;;;;;6.73;6.00;;;2.70;91.70;;;2.45;64.51;95441.13;5095068;28;20446;-58
2021/12/19 02:25:28;;;;;;;8.67;5.60;;;2.70;91.70;;;2.47;63.23;95438.47;5097359;28;20993;-58
2021/12/19 02:27:56;;;;;;;7.47;6.23;;;2.80;91.60;;;2.46;63.06;95436.78;5096395;28;20863;-61
2021/12/19 02:30:24;;;;;;;6.23;5.27;;;2.80;91.50;;;2.46;63.44;95441.97;5089503;28;20442;-61
2021/12/19 02:32:51;;;;;;;7.03;6.20;;;2.70;91.50;;;2.46;63.16;95442.84;5094367;28;20489;-57
2021/12/19 02:35:22;;;;;;;11.30;5.77;;;2.70;91.50;;;2.46;63.06;95442.84;5094573;28;20806;-60
2021/12/19 02:49:05;;;;;;;5.53;5.03;;;2.70;91.40;;;2.43;63.42;95432.59;5095060;28;20471;-60
2021/12/19 02:51:34;;;;;;;7.57;5.97;;;2.70;91.40;;;2.40;63.73;95422.38;5096335;28;20562;-60
2021/12/19 02:54:04;;;;;;;7.10;5.73;;;2.70;91.40;;;2.45;63.79;95430.75;5096656;28;20511;-58
2021/12/19 02:56:32;;;;;;;6.27;5.67;;;2.70;91.50;;;2.45;64.47;95428.16;5096535;28;20470;-58
2021/12/19 02:58:59;;;;;;;11.23;5.57;;;2.80;91.60;;;2.47;64.10;95413.34;5097488;28;20547;-60
2021/12/19 03:01:26;;;;;;;7.80;5.80;;;2.80;91.50;;;2.49;64.13;95424.50;5095766;28;20469;-59
2021/12/19 03:03:53;;;;;;;6.63;5.50;;;2.80;91.50;;;2.51;63.75;95421.84;5091068;28;20461;-59
2021/12/19 03:06:21;;;;;;;8.90;6.60;;;2.80;91.50;;;2.54;63.73;95420.81;5093016;28;20466;-60
2021/12/19 03:08:50;;;;;;;7.30;6.40;;;2.80;91.50;;;2.55;63.20;95422.50;5097062;28;20502;-61
2021/12/19 03:11:57;;;;;;;11.60;6.37;;;2.80;91.50;;;2.55;63.41;95412.94;5094785;28;20508;-60
2021/12/19 03:19:47;;;;;;;5.63;5.13;;;2.80;91.30;;;2.50;63.44;95415.78;5017684;28;20880;-58
2021/12/19 03:22:14;;;;;;;7.37;5.50;;;2.80;91.30;;;2.47;63.79;95420.28;5079239;28;20475;-58
2021/12/19 03:24:41;;;;;;;6.83;5.73;;;2.80;91.20;;;2.44;63.24;95415.25;5096684;28;20446;-60
2021/12/19 03:27:10;;;;;;;6.37;5.23;;;2.70;91.30;;;2.42;63.12;95424.88;5095968;28;20474;-60
2021/12/19 03:29:37;;;;;;;8.97;5.80;;;2.70;91.20;;;2.38;64.10;95416.41;5094146;28;20447;-58
2021/12/19 03:32:05;;;;;;;6.27;5.60;;;2.70;91.20;;;2.33;64.04;95411.44;5089380;28;20550;-61
2021/12/19 03:34:34;;;;;;;7.20;5.73;;;2.60;91.20;;;2.31;63.45;95408.09;5089970;28;20460;-59
2021/12/19 03:37:02;;;;;;;7.03;5.97;;;2.60;91.20;;;2.29;63.92;95412.53;5097448;28;20882;-60
2021/12/19 03:39:37;;;;;;;6.00;5.40;;;2.60;91.20;;;2.25;62.89;95404.97;5095057;28;20472;-61
2021/12/19 03:42:05;;;;;;;8.50;5.63;;;2.60;91.20;;;2.21;63.41;95411.22;5088408;28;20519;-59
2021/12/19 03:44:34;;;;;;;10.47;6.07;;;2.50;91.10;;;2.15;63.59;95408.00;5096690;28;20461;-61
2021/12/19 03:47:01;;;;;;;6.90;6.30;;;2.50;91.10;;;2.10;63.04;95403.94;5092678;28;20466;-60
2021/12/19 03:49:28;;;;;;;7.20;5.97;;;2.40;91.10;;;2.05;63.19;95406.78;5094763;28;20457;-61
2021/12/19 03:51:56;;;;;;;6.07;4.97;;;2.40;91.20;;;2.00;63.52;95398.38;5090328;28;21062;-61
2021/12/19 03:54:23;;;;;;;8.73;5.90;;;2.30;91.20;;;1.95;63.92;95401.19;5094618;28;20659;-60
2021/12/19 03:56:50;;;;;;;7.13;5.83;;;2.30;91.20;;;1.91;62.81;95397.06;5094233;28;20477;-57
2021/12/19 03:59:17;;;;;;;5.97;5.30;;;2.20;91.30;;;1.88;64.10;95386.84;5095427;28;20477;-60
2021/12/19 04:01:50;;;;;;;6.83;5.67;;;2.20;91.40;;;1.86;64.17;95385.22;5097419;28;20521;-60
2021/12/19 04:04:17;;;;;;;5.73;5.17;;;2.20;91.30;;;1.81;63.46;95382.03;5094558;28;20441;-58
2021/12/19 04:06:45;;;;;;;5.20;4.70;;;2.10;91.30;;;1.78;64.42;95375.22;5098076;28;21106;-60
2021/12/19 04:09:12;;;;;;;6.50;5.27;;;2.10;91.40;;;1.75;63.83;95376.22;5097010;28;20507;-58
2021/12/19 04:11:39;;;;;;;6.17;4.80;;;2.10;91.40;;;1.74;64.21;95377.13;5093064;28;20483;-58
2021/12/19 04:14:06;;;;;;;6.10;5.50;;;2.10;91.40;;;1.73;63.87;95375.44;5093076;28;20450;-58
2021/12/19 04:16:34;;;;;;;15.13;6.10;;;2.00;91.30;;;1.73;64.08;95375.44;5090486;28;20481;-57
2021/12/19 04:19:02;;;;;;;10.07;5.47;;;2.00;91.30;;;1.71;63.77;95363.47;5094743;28;20599;-60
2021/12/19 04:21:29;;;;;;;5.30;4.80;;;2.00;91.30;;;1.70;64.42;95370.41;5098938;28;20477;-60
2021/12/19 04:23:57;;;;;;;7.23;5.40;;;2.00;91.60;;;1.68;63.26;95364.47;5101745;28;20457;-59
2021/12/19 04:26:24;;;;;;;5.43;4.63;;;2.00;91.20;;;1.69;63.61;95363.56;5097811;28;20461;-60
2021/12/19 04:28:51;;;;;;;5.97;5.40;;;2.00;91.20;;;1.69;64.16;95365.28;5100618;28;20454;-58
2021/12/19 04:31:19;;;;;;;6.27;5.10;;;2.00;91.20;;;1.69;63.85;95363.56;5098704;28;20498;-60
2021/12/19 04:33:46;;;;;;;11.93;5.47;;;2.00;91.20;;;1.70;62.90;95364.38;5096368;28;20445;-58
2021/12/19 04:36:22;;;;;;;6.43;4.80;;;2.00;91.20;;;1.71;63.89;95361.72;5097996;28;20462;-60
2021/12/19 04:41:58;;;;;;;7.33;5.80;;;2.00;91.10;;;1.69;64.04;95358.38;5096853;28;21001;-58
2021/12/19 04:44:45;;;;;;;6.77;5.07;;;2.00;91.10;;;1.69;63.28;95360.97;5099008;28;20562;-61
2021/12/19 04:55:59;;;;;;;6.97;5.80;;;2.00;91.10;;;1.72;62.76;95342.66;5095669;28;20433;-59
2021/12/19 05:01:20;;;;;;;9.63;6.80;;;2.10;91.20;;;1.77;62.70;95334.66;5095835;28;21021;-60
2021/12/19 05:03:57;;;;;;;8.20;5.70;;;2.10;91.10;;;1.79;63.14;95333.66;5092781;28;20438;-60
2021/12/19 05:06:46;;;;;;;9.80;5.17;;;2.10;91.10;;;1.83;63.09;95338.69;5103365;28;20464;-60
2021/12/19 05:14:49;;;;;;;7.20;5.20;;;2.20;91.00;;;1.91;63.25;95354.72;5095512;28;20513;-58
2021/12/19 05:17:21;;;;;;;8.30;5.13;;;2.20;91.00;;;1.92;63.94;95348.59;5099457;28;20473;-59
2021/12/19 05:20:03;;;;;;;8.17;6.00;;;2.20;91.00;;;1.94;63.59;95349.41;5098666;28;21002;-59
2021/12/19 05:22:32;;;;;;;7.73;4.80;;;2.20;91.00;;;1.96;62.53;95353.56;5095119;28;20462;-57
2021/12/19 05:25:12;;;;;;;9.80;6.10;;;2.30;90.90;;;1.97;62.63;95351.84;5101877;28;20450;-59
2021/12/19 05:27:42;;;;;;;6.20;4.70;;;2.30;90.80;;;1.98;62.55;95358.69;5093085;28;20560;-60
2021/12/19 05:30:10;;;;;;;9.23;5.73;;;2.30;90.90;;;1.99;63.57;95362.97;5097328;28;20474;-61
2021/12/19 05:32:38;;;;;;;9.10;6.47;;;2.30;90.90;;;2.00;62.71;95358.59;5098848;28;20489;-60
2021/12/19 05:35:06;;;;;;;13.27;6.47;;;2.30;90.90;;;2.02;62.94;95354.22;5097285;28;20884;-59
2021/12/19 05:45:48;;;;;;;8.33;6.20;;;2.30;90.70;;;2.04;63.26;95337.63;5099424;28;20510;-58
2021/12/19 05:48:15;;;;;;;10.97;6.40;;;2.30;90.60;;;2.04;63.21;95334.19;5098055;28;20445;-61
2021/12/19 05:50:43;;;;;;;6.27;5.20;;;2.40;90.80;;;2.04;61.98;95335.03;5096426;28;20449;-59
2021/12/19 05:53:10;;;;;;;8.43;6.10;;;2.30;90.70;;;2.04;63.63;95332.44;5092788;28;20485;-60
2021/12/19 05:55:39;;;;;;;6.70;5.40;;;2.40;90.70;;;2.02;61.99;95336.88;5098933;28;20446;-59
2021/12/19 05:58:07;;;;;;;8.50;6.50;;;2.40;90.70;;;2.02;63.10;95336.03;5098758;28;20460;-62
2021/12/19 06:00:34;;;;;;;7.57;5.73;;;2.30;90.60;;;2.00;62.82;95332.66;5098939;28;20470;-58
2021/12/19 06:03:01;;;;;;;10.23;5.93;;;2.30;90.70;;;1.98;63.09;95327.56;5097140;28;20532;-61
2021/12/19 06:05:29;;;;;;;8.50;6.60;;;2.30;90.60;;;1.97;63.19;95321.53;5097859;28;20459;-56
2021/12/19 06:07:56;;;;;;;7.13;5.80;;;2.30;90.70;;;1.99;63.48;95328.41;5096935;27;20452;-61
2021/12/19 06:10:25;;;;;;;7.73;6.13;;;2.30;90.80;;;1.99;63.66;95326.66;5097268;28;20453;-59
2021/12/19 06:12:54;;;;;;;7.53;6.40;;;2.30;90.80;;;2.00;62.83;95319.69;5099871;28;20487;-62
2021/12/19 06:15:21;;;;;;;6.93;6.23;;;2.30;91.20;;;2.04;63.38;95319.47;5089414;28;20438;-59
2021/12/19 06:17:48;;;;;;;11.43;6.30;;;2.30;90.80;;;2.10;62.87;95316.56;5089971;28;20470;-58
2021/12/19 06:20:16;;;;;;;6.77;5.70;;;2.40;90.90;;;2.10;62.55;95310.53;5097428;28;20465;-58
2021/12/19 06:22:43;;;;;;;9.20;6.63;;;2.40;90.70;;;2.09;62.35;95309.72;5089372;28;20514;-63
2021/12/19 06:25:11;;;;;;;8.50;6.70;;;2.40;90.70;;;2.10;62.60;95301.00;5095012;28;20449;-60
2021/12/19 06:27:38;;;;;;;17.17;7.83;;;2.40;90.90;;;2.10;63.33;95303.59;5096244;28;20472;-60
2021/12/19 06:30:09;;;;;;;12.43;8.03;;;2.40;90.70;;;2.09;62.33;95309.72;5089370;28;20453;-58
2021/12/19 06:32:36;;;;;;;15.30;8.97;;;2.40;90.90;;;2.09;63.43;95301.94;5088201;28;20564;-60
2021/12/19 06:35:07;;;;;;;13.23;7.90;;;2.40;90.80;;;2.15;63.22;95299.03;5099928;28;20473;-59
2021/12/19 06:37:38;;;;;;;19.23;10.73;;;2.40;90.90;;;2.40;63.15;95302.97;5097578;28;20547;-58
2021/12/19 06:40:06;;;;;;;15.23;10.27;;;2.70;91.20;;;2.88;62.25;95297.81;5095315;28;20453;-59
2021/12/19 06:42:33;;;;;;;19.10;11.70;;;3.20;91.10;;;3.53;61.23;95289.94;5092619;28;20474;-58
2021/12/19 06:45:01;;;;;;;15.37;8.50;;;3.80;90.70;;;4.29;60.82;95296.81;5093852;28;20458;-58
2021/12/19 06:47:29;;;;;;;14.37;9.13;;;4.60;90.00;;;5.07;58.83;95289.56;5094258;28;20584;-59
2021/12/19 06:49:57;;;;;;;14.50;8.87;;;5.40;87.70;;;5.70;57.76;95283.78;5095744;28;20457;-59
2021/12/19 06:52:24;;;;;;;11.77;8.87;;;6.10;85.30;;;6.25;56.62;95288.91;5094862;28;20501;-59
2021/12/19 06:54:51;;;;;;;16.50;9.60;;;6.60;83.40;;;6.89;55.71;95288.06;5096462;28;20461;-60
2021/12/19 06:57:18;;;;;;;10.47;9.00;;;7.40;82.80;;;7.64;54.15;95274.03;5094592;28;20478;-59
2021/12/19 06:59:47;;;;;;;13.50;7.63;;;8.10;79.90;;;8.45;53.44;95280.25;5094361;28;20454;-58
2021/12/19 07:02:16;;;;;;;9.67;7.47;;;8.90;78.10;;;9.16;51.61;95277.41;5097757;28;20804;-58
2021/12/19 07:04:45;;;;;;;10.40;7.40;;;9.60;75.00;;;9.64;49.95;95284.97;5097950;28;20518;-59
2021/12/19 07:07:12;;;;;;;10.63;8.13;;;10.10;70.80;;;9.89;50.06;95282.16;5096098;28;20874;-59
2021/12/19 07:09:40;;;;;;;14.43;9.13;;;10.40;69.70;;;10.14;48.54;95281.78;5096339;28;20453;-61
2021/12/19 07:12:09;;;;;;;11.70;7.90;;;10.60;67.40;;;10.53;48.00;95283.88;5094122;28;20472;-58
2021/12/19 07:14:36;;;;;;;11.13;7.20;;;10.90;66.90;;;10.81;47.63;95284.16;5095023;28;20450;-61
2021/12/19 07:17:04;;;;;;;9.17;6.80;;;11.20;65.20;;;10.61;47.39;95283.22;5098051;28;21028;-58
2021/12/19 07:19:31;;;;;;;11.63;6.97;;;11.10;63.90;;;10.07;47.56;95288.53;5094361;28;20887;-60
2021/12/19 07:21:59;;;;;;;13.00;7.33;;;10.70;62.00;;;9.68;48.37;95269.78;5096416;28;21416;-57
2021/12/19 07:24:27;;;;;;;8.07;6.63;;;10.20;62.90;;;9.29;48.93;95275.47;5088467;28;20454;-61
2021/12/19 07:26:54;;;;;;;11.40;7.07;;;9.80;65.30;;;8.82;48.78;95271.38;5089566;28;20469;-58
2021/12/19 07:29:21;;;;;;;12.03;8.43;;;9.30;64.70;;;8.35;48.95;95274.84;5093782;28;20454;-58
2021/12/19 07:31:49;;;;;;;17.90;7.53;;;8.80;65.50;;;7.92;49.67;95269.34;5092921;28;20481;-59
2021/12/19 07:34:16;;;;;;;8.63;6.70;;;8.30;66.60;;;7.51;50.35;95272.31;5093718;28;20568;-59
2021/12/19 07:36:50;;;;;;;7.30;6.30;;;7.90;67.90;;;7.18;51.38;95272.94;5096880;28;20474;-57
2021/12/19 07:39:26;;;;;;;11.43;7.00;;;7.50;68.80;;;6.85;51.32;95271.75;5098798;28;20537;-61
2021/12/19 07:41:54;;;;;;;9.27;7.30;;;7.20;69.80;;;6.53;52.02;95271.38;5088953;28;20468;-58
2021/12/19 07:44:21;;;;;;;16.63;8.20;;;6.90;70.70;;;6.28;52.52;95273.03;5089373;28;20450;-61
2021/12/19 07:46:49;;;;;;;10.60;7.83;;;6.50;71.20;;;6.08;52.73;95269.97;5093607;28;20895;-58
2021/12/19 07:49:16;;;;;;;10.57;7.47;;;6.40;72.30;;;5.89;53.66;95267.72;5092690;28;20445;-63
2021/12/19 07:51:43;;;;;;;10.97;8.17;;;6.10;72.90;;;5.70;52.90;95267.25;5093056;28;20473;-60
2021/12/19 07:54:11;;;;;;;10.33;7.77;;;5.90;72.90;;;5.52;53.67;95264.09;5096536;28;21082;-62
2021/12/19 07:56:40;;;;;;;12.23;8.63;;;5.80;74.20;;;5.35;54.23;95260.78;5098175;28;20500;-61
2021/12/19 07:59:07;;;;;;;14.10;8.43;;;5.60;74.90;;;5.25;54.21;95259.72;5100701;28;21061;-61
2021/12/19 08:01:35;;;;;;;12.53;7.57;;;5.50;75.30;;;5.13;54.75;95252.66;5098840;28;20470;-62
2021/12/19 08:04:02;;;;;;;9.80;7.93;;;5.40;75.90;;;5.05;54.59;95254.91;5099051;28;20448;-61
2021/12/19 08:06:29;;;;;;;14.73;8.70;;;5.30;76.30;;;4.95;55.05;95245.06;5098560;28;20519;-58
2021/12/19 08:08:58;;;;;;;9.03;7.43;;;5.20;76.80;;;4.90;55.26;95239.31;5100369;28;20579;-61
2021/12/19 08:11:42;;;;;;;12.00;8.60;;;5.10;77.10;;;4.87;55.39;95236.88;5096600;28;20477;-59
2021/12/19 08:14:12;;;;;;;13.80;9.43;;;5.10;77.60;;;4.86;55.61;95235.22;5097436;28;20473;-59
2021/12/19 08:16:39;;;;;;;16.50;11.20;;;5.10;78.20;;;4.84;55.71;95230.09;5094051;28;20478;-59
2021/12/19 08:19:07;;;;;;;11.07;8.13;;;5.10;78.20;;;4.81;55.68;95217.25;5099893;28;20445;-61
2021/12/19 08:21:34;;;;;;;13.77;8.00;;;5.00;78.10;;;4.77;55.48;95214.94;5096977;28;20481;-61
2021/12/19 08:24:02;;;;;;;15.90;9.00;;;5.00;78.10;;;4.72;55.54;95206.56;5097654;28;20450;-62
2021/12/19 08:26:30;;;;;;;22.33;12.33;;;4.90;78.10;;;4.69;55.92;95206.78;5091769;28;20470;-58
2021/12/19 08:28:57;;;;;;;19.70;11.33;;;4.90;79.40;;;4.70;56.20;95203.25;5091502;28;20450;-59
2021/12/19 08:31:26;;;;;;;16.63;11.13;;;4.90;79.40;;;4.71;55.77;95194.47;5100134;28;20477;-60
2021/12/19 08:33:54;;;;;;;12.90;9.47;;;4.90;79.90;;;4.71;56.21;95200.53;5096196;28;21031;-59
2021/12/19 08:36:21;;;;;;;14.23;7.90;;;4.90;79.50;;;4.67;55.94;95204.25;5097172;28;20492;-62
2021/12/19 08:38:49;;;;;;;22.33;7.63;;;4.90;79.20;;;4.62;56.00;95206.31;5093161;28;20885;-60
2021/12/19 08:41:16;;;;;;;12.73;8.70;;;4.80;79.20;;;4.57;56.34;95214.41;5092609;28;20466;-59
2021/12/19 08:43:43;;;;;;;13.87;8.20;;;4.80;79.40;;;4.56;56.50;95215.34;5091364;28;20465;-62
2021/12/19 08:46:11;;;;;;;12.93;7.23;;;4.80;79.90;;;4.54;57.18;95213.75;5098742;28;20489;-58
2021/12/19 08:48:40;;;;;;;13.07;7.07;;;4.80;80.00;;;4.51;56.56;95209.59;5098173;28;20456;-59
2021/12/19 08:51:07;;;;;;;7.33;5.77;;;4.70;80.20;;;4.51;56.45;95221.75;5099893;28;20476;-58
2021/12/19 08:53:35;;;;;;;7.83;6.00;;;4.70;80.10;;;4.49;56.25;95217.50;5099150;28;20485;-58
2021/12/19 08:56:02;;;;;;;6.83;6.13;;;4.70;80.30;;;4.49;56.53;95214.03;5096171;28;20845;-62
2021/12/19 08:58:30;;;;;;;6.30;5.40;;;4.70;80.40;;;4.47;56.61;95208.09;5096083;28;20466;-61
2021/12/19 09:01:01;;;;;;;7.70;5.47;;;4.70;80.30;;;4.46;56.74;95217.69;5095645;28;20483;-62
2021/12/19 09:03:29;;;;;;;8.80;6.47;;;4.70;80.60;;;4.45;56.87;95208.19;5096661;28;20450;-61
2021/12/19 09:05:58;;;;;;;6.73;6.13;;;4.70;80.90;;;4.45;57.04;95209.97;5096910;28;20501;-61
2021/12/19 09:08:25;;;;;;;6.23;5.63;;;4.70;80.90;;;4.43;57.24;95196.19;5091855;28;20442;-61
2021/12/19 09:10:53;;;;;;;10.30;6.47;;;4.60;81.10;;;4.40;57.03;95202.44;5091265;28;20473;-60
2021/12/19 09:13:20;;;;;;;9.90;7.33;;;4.60;81.20;;;4.37;57.00;95189.59;5099076;28;20618;-62
2021/12/19 09:15:47;;;;;;;7.03;5.30;;;4.60;81.30;;;4.34;57.80;95179.38;5097025;28;20466;-59
2021/12/19 09:18:15;;;;;;;11.20;6.77;;;4.60;81.40;;;4.36;57.07;95184.50;5091634;28;20441;-60
2021/12/19 09:20:42;;;;;;;9.23;6.80;;;4.60;81.60;;;4.35;57.34;95177.59;5092635;28;20477;-60
2021/12/19 09:23:11;;;;;;;15.10;7.60;;;4.60;81.70;;;4.31;57.28;95177.78;5098176;28;20461;-59
2021/12/19 09:25:39;;;;;;;8.00;6.97;;;4.60;81.80;;;4.31;57.46;95172.56;5100787;28;20552;-59
2021/12/19 09:28:06;;;;;;;13.00;7.43;;;4.60;82.00;;;4.30;57.73;95170.91;5091041;28;20438;-62
2021/12/19 09:30:34;;;;;;;8.53;6.77;;;4.50;82.30;;;4.31;57.54;95166.53;5090781;28;20450;-59
2021/12/19 09:33:01;;;;;;;11.40;6.33;;;4.50;82.40;;;4.30;57.77;95160.47;5093168;28;20519;-62
2021/12/19 09:35:29;;;;;;;7.13;6.53;;;4.50;82.50;;;4.31;57.98;95159.56;5089851;28;20491;-59
2021/12/19 09:37:56;;;;;;;7.77;6.50;;;4.60;83.00;;;4.33;57.79;95150.81;5094198;28;20505;-61
2021/12/19 09:40:33;;;;;;;10.10;7.27;;;4.50;82.90;;;4.36;58.13;95153.25;5099704;28;20457;-62
2021/12/19 09:43:02;;;;;;;13.53;8.07;;;4.60;83.20;;;4.38;58.20;95148.75;5093879;28;20458;-59
2021/12/19 09:45:30;;;;;;;10.80;6.50;;;4.60;83.20;;;4.40;57.71;95152.97;5093507;28;20450;-60
2021/12/19 09:47:57;;;;;;;9.97;8.20;;;4.60;83.40;;;4.39;58.34;95140.03;5093660;28;20866;-60
2021/12/19 09:50:25;;;;;;;15.33;7.57;;;4.60;83.60;;;4.38;58.11;95141.78;5093674;28;20451;-59
2021/12/19 09:52:52;;;;;;;13.33;7.73;;;4.60;83.90;;;4.38;58.32;95133.16;5090637;28;20449;-59
2021/12/19 09:55:21;;;;;;;10.87;6.60;;;4.60;83.80;;;4.38;58.48;95127.94;5091946;28;20438;-62
2021/12/19 09:57:51;;;;;;;9.23;6.80;;;4.60;83.90;;;4.37;58.58;95121.03;5091918;28;20470;-60
2021/12/19 10:00:19;;;;;;;10.57;8.13;;;4.60;83.90;;;4.34;58.64;95113.41;5094020;28;20442;-61
2021/12/19 10:02:46;;;;;;;10.37;8.47;;;4.60;83.90;;;4.31;58.71;95102.28;5092435;28;20472;-61
2021/12/19 10:05:22;;;;;;;9.03;7.50;;;4.60;84.40;;;4.33;58.67;95101.34;5094998;28;20479;-61
2021/12/19 10:07:52;;;;;;;12.90;9.00;;;4.60;84.80;;;4.33;59.03;95102.19;5093833;28;20458;-61
2021/12/19 10:10:26;;;;;;;12.27;7.90;;;4.60;84.90;;;4.35;59.10;95081.25;5094460;28;20438;-62
2021/12/19 10:12:58;;;;;;;9.17;7.80;;;4.60;85.10;;;4.37;59.31;95087.19;5093442;28;20795;-62
2021/12/19 10:15:32;;;;;;;10.97;7.87;;;4.60;85.40;;;4.37;59.57;95089.78;5096570;28;20437;-59
2021/12/19 10:18:07;;;;;;;12.50;7.83;;;4.60;85.40;;;4.39;59.46;95083.56;5088985;28;20981;-62
2021/12/19 10:20:47;;;;;;;10.67;7.70;;;4.60;85.50;;;4.40;59.10;95077.44;5089044;28;20450;-59
2021/12/19 10:23:16;;;;;;;10.47;7.60;;;4.60;85.40;;;4.40;59.51;95074.84;5090451;28;20434;-62
2021/12/19 10:25:44;;;;;;;13.50;7.80;;;4.60;85.60;;;4.40;59.60;95067.03;5092889;28;20453;-59
2021/12/19 10:28:13;;;;;;;9.07;7.60;;;4.60;85.90;;;4.43;59.32;95069.44;5092508;28;20481;-59
2021/12/19 10:30:46;;;;;;;10.83;8.57;;;4.70;87.00;;;4.44;59.50;95072.88;5093410;28;20445;-61
2021/12/19 10:33:14;;;;;;;12.13;8.20;;;4.60;86.10;;;4.43;59.30;95060.75;5092431;28;20470;-60
2021/12/19 10:35:42;;;;;;;12.63;9.00;;;4.70;86.30;;;4.41;59.67;95067.84;5093840;28;20997;-58
2021/12/19 10:38:15;;;;;;;15.03;8.70;;;4.60;86.20;;;4.38;59.59;95062.84;5089716;28;20446;-61
2021/12/19 10:40:46;;;;;;;14.10;9.20;;;4.60;86.30;;;4.35;59.82;95053.44;5095463;28;20993;-61
2021/12/19 10:43:16;;;;;;;15.00;10.67;;;4.60;86.80;;;4.34;60.21;95049.19;5089559;28;20450;-58
2021/12/19 10:45:47;;;;;;;11.93;9.10;;;4.60;87.10;;;4.31;60.38;95047.59;5097942;28;21558;-60
2021/12/19 10:48:27;;;;;;;12.20;9.00;;;4.50;87.50;;;4.30;60.45;95051.13;5092981;28;20450;-61
2021/12/19 10:50:58;;;;;;;13.70;9.30;;;4.50;87.30;;;4.29;60.25;95044.28;5098134;28;20465;-58
2021/12/19 10:53:29;;;;;;;14.67;9.47;;;4.50;87.40;;;4.24;60.63;95035.88;5099879;28;20454;-61
2021/12/19 10:55:56;;;;;;;13.43;8.73;;;4.50;87.30;;;4.22;60.42;95035.16;5096822;28;20481;-61
2021/12/19 10:58:34;;;;;;;18.93;8.93;;;4.50;87.70;;;4.22;60.51;95031.75;5096253;28;20476;-58
2021/12/19 11:01:18;;;;;;;12.00;9.17;;;4.40;87.90;;;4.22;60.78;95026.53;5101943;28;20485;-62
2021/12/19 11:04:00;;;;;;;16.47;7.47;;;4.40;88.30;;;4.20;61.05;95024.03;5093573;28;20445;-58
2021/12/19 11:06:31;;;;;;;11.00;7.67;;;4.40;88.50;;;4.20;60.93;95018.81;5093006;28;20869;-61
2021/12/19 11:09:00;;;;;;;12.13;8.53;;;4.40;88.40;;;4.21;60.76;95015.25;5097010;28;20962;-60
2021/12/19 11:11:51;;;;;;;11.40;7.70;;;4.40;88.40;;;4.22;60.80;95001.31;5098617;28;20545;-61
2021/12/19 11:14:22;;;;;;;13.33;8.70;;;4.50;88.20;;;4.24;60.43;94996.84;5094341;28;20472;-59
2021/12/19 11:16:51;;;;;;;14.13;8.40;;;4.40;87.60;;;4.26;60.21;95002.81;5099038;28;20457;-61
2021/12/19 11:19:19;;;;;;;14.23;9.33;;;4.50;87.10;;;4.29;60.11;95001.75;5097978;28;20873;-60
2021/12/19 11:21:46;;;;;;;34.67;19.37;;;4.50;86.80;;;4.31;59.48;95000.72;5097433;28;20482;-59
2021/12/19 11:24:16;;;;;;;18.43;11.83;;;4.50;86.80;;;4.34;60.11;94994.50;5098850;28;20461;-59
2021/12/19 11:26:44;;;;;;;13.17;9.10;;;4.60;86.90;;;4.37;60.13;94993.44;5097736;28;20465;-60